Latest Weather Observations for Bickley

IDW60801

Issued at 3:02 pm WST Friday 19 December 2014 (issued every 30 minutes, with the page automatically refreshed every 10 minutes)

About weather observations | Map of weather stations | Latest weather observations for WA | Other Formats
Station Details ID: 009240 Name: BICKLEY Lat: -32.01 Lon: 116.14 Height: 384.0 m
Data from the previous 72 hours. | See also: Recent months at Bickley
Date/Time
WST
Temp
°C
App
Temp
°C
Dew
Point
Rel
Hum
%
Delta-T
°C
Wind Press
QNH
hPa
Press
MSL
hPa
Rain
since 9 am
mm
Dir
 
Spd
km/h
Gust
km/h
Spd
kts
Gust
kts
19/03:00pm 36.1 - 9.6 20 15.5 - - - - - - - 0.0
19/02:30pm 36.5 - 9.9 20 15.7 - - - - - - - 0.0
19/02:00pm 35.9 - 11.5 23 14.7 - - - - - - - 0.0
19/01:30pm 35.6 - 11.3 23 14.6 - - - - - - - 0.0
19/01:00pm 35.0 - 11.4 24 14.2 - - - - - - - 0.0
19/12:30pm 34.4 - 10.9 24 14.0 - - - - - - - 0.0
19/12:00pm 34.5 - 12.2 26 13.5 - - - - - - - 0.0
19/11:30am 32.8 - 11.3 27 12.8 - - - - - - - 0.0
19/11:00am 31.9 - 10.6 27 12.5 - - - - - - - 0.0
19/10:30am 30.4 - 10.9 30 11.4 - - - - - - - 0.0
19/10:00am 29.1 - 11.2 33 10.4 - - - - - - - 0.0
19/09:30am 27.6 - 11.2 36 9.5 - - - - - - - 0.0
19/09:00am 26.0 - 10.6 38 8.8 - - - - - - - 0.0
19/08:30am 24.5 - 11.1 43 7.6 - - - - - - - 0.0
19/08:00am 21.9 - 10.1 47 6.5 - - - - - - - 0.0
19/07:30am 20.7 - 10.5 52 5.6 - - - - - - - 0.0
19/07:00am 19.1 - 10.4 57 4.8 - - - - - - - 0.0
19/06:30am 17.6 - 10.0 61 4.1 - - - - - - - 0.0
19/06:00am 16.1 - 9.5 65 3.5 - - - - - - - 0.0
19/05:30am 15.9 - 9.1 64 3.6 - - - - - - - 0.0
19/05:00am 16.0 - 9.2 64 3.6 - - - - - - - 0.0
19/04:30am 16.1 - 9.1 63 3.7 - - - - - - - 0.0
19/04:00am 16.5 - 9.2 62 3.9 - - - - - - - 0.0
19/03:30am 16.9 - 9.3 61 4.0 - - - - - - - 0.0
19/03:00am 17.4 - 9.3 59 4.3 - - - - - - - 0.0
19/02:30am 17.8 - 9.2 57 4.6 - - - - - - - 0.0
19/02:00am 18.1 - 8.7 54 5.0 - - - - - - - 0.0
19/01:30am 18.7 - 8.1 50 5.6 - - - - - - - 0.0
19/01:00am 18.6 - 7.1 47 5.9 - - - - - - - 0.0
19/12:30am 19.1 - 6.9 45 6.3 - - - - - - - 0.0
19/12:00am 19.7 - 7.4 45 6.4 - - - - - - - 0.0
 
Date/Time
WST
Temp
°C
App
Temp
°C
Dew
Point
Rel
Hum
%
Delta-T
°C
Wind Press
QNH
hPa
Press
MSL
hPa
Rain
since 9 am
mm
Dir
 
Spd
km/h
Gust
km/h
Spd
kts
Gust
kts
18/11:30pm 18.7 - 10.0 57 4.7 - - - - - - - 0.0
18/11:00pm 18.9 - 10.2 57 4.7 - - - - - - - 0.0
18/10:30pm 18.3 - 10.4 60 4.3 - - - - - - - 0.0
18/10:00pm 18.1 - 10.7 62 4.1 - - - - - - - 0.0
18/09:30pm 18.5 - 10.8 61 4.2 - - - - - - - 0.0
18/09:00pm 18.7 - 11.0 61 4.3 - - - - - - - 0.0
18/08:30pm 19.1 - 11.2 60 4.4 - - - - - - - 0.0
18/08:00pm 20.0 - 11.2 57 4.9 - - - - - - - 0.0
18/07:30pm 20.9 - 11.3 54 5.4 - - - - - - - 0.0
18/07:00pm 22.0 - 11.1 50 6.1 - - - - - - - 0.0
18/06:30pm 23.7 - 11.1 45 7.2 - - - - - - - 0.0
18/06:00pm 24.6 - 11.2 43 7.7 - - - - - - - 0.0
18/05:30pm 25.8 - 10.8 39 8.6 - - - - - - - 0.0
18/05:00pm 28.7 - 9.4 30 10.9 - - - - - - - 0.0
18/04:30pm 29.7 - 1.2 16 14.1 - - - - - - - 0.0
18/04:00pm 28.8 - 0.5 16 13.8 - - - - - - - 0.0
18/03:30pm 28.9 - -0.3 15 14.0 - - - - - - - 0.0
18/03:00pm 28.2 - 0.9 17 13.3 - - - - - - - 0.0
18/02:30pm 29.2 - 3.2 19 13.3 - - - - - - - 0.0
18/02:00pm 28.2 - 3.8 21 12.5 - - - - - - - 0.0
18/01:30pm 26.9 - 3.4 22 11.9 - - - - - - - 0.0
18/01:00pm 26.8 - 5.1 25 11.3 - - - - - - - 0.0
18/12:30pm 26.2 - 5.2 26 10.9 - - - - - - - 0.0
18/12:00pm 25.4 - 7.1 31 9.8 - - - - - - - 0.0
18/11:30am 24.5 - 7.2 33 9.2 - - - - - - - 0.0
18/11:00am 23.2 - 7.7 37 8.3 - - - - - - - 0.0
18/10:30am 22.0 - 8.2 41 7.4 - - - - - - - 0.0
18/10:00am 21.7 - 9.6 46 6.6 - - - - - - - 0.0
18/09:30am 19.9 - 8.9 49 5.9 - - - - - - - 0.0
18/09:00am 18.5 - 9.0 54 5.1 - - - - - - - 0.0
18/08:30am 18.2 - 9.5 57 4.7 - - - - - - - 0.0
18/08:00am 16.6 - 9.3 62 3.9 - - - - - - - 0.0
18/07:30am 15.7 - 9.4 66 3.3 - - - - - - - 0.0
18/07:00am 14.4 - 9.0 70 2.8 - - - - - - - 0.0
18/06:30am 13.3 - 8.8 74 2.3 - - - - - - - 0.0
18/06:00am 12.2 - 8.5 78 1.9 - - - - - - - 0.0
18/05:30am 11.8 - 8.5 80 1.7 - - - - - - - 0.0
18/05:00am 12.0 - 8.8 81 1.6 - - - - - - - 0.0
18/04:30am 12.3 - 9.0 80 1.7 - - - - - - - 0.0
18/04:00am 12.9 - 8.6 75 2.2 - - - - - - - 0.0
18/03:30am 13.1 - 7.5 69 2.8 - - - - - - - 0.0
18/03:00am 13.7 - 7.5 66 3.1 - - - - - - - 0.0
18/02:30am 14.4 - 7.7 64 3.4 - - - - - - - 0.0
18/02:00am 14.7 - 7.5 62 3.6 - - - - - - - 0.0
18/01:30am 15.0 - 7.5 61 3.8 - - - - - - - 0.0
18/01:00am 15.3 - 7.3 59 4.0 - - - - - - - 0.0
18/12:30am 15.5 - 7.5 59 4.1 - - - - - - - 0.0
18/12:00am 15.8 - 8.1 60 4.0 - - - - - - - 0.0
 
Date/Time
WST
Temp
°C
App
Temp
°C
Dew
Point
Rel
Hum
%
Delta-T
°C
Wind Press
QNH
hPa
Press
MSL
hPa
Rain
since 9 am
mm
Dir
 
Spd
km/h
Gust
km/h
Spd
kts
Gust
kts
17/11:30pm 15.8 - 9.2 65 3.5 - - - - - - - 0.0
17/11:00pm 15.6 - 10.8 73 2.6 - - - - - - - 0.0
17/10:30pm 15.3 - 11.1 76 2.3 - - - - - - - 0.0
17/10:00pm 15.4 - 11.2 76 2.3 - - - - - - - 0.0
17/09:30pm 15.7 - 11.3 75 2.4 - - - - - - - 0.0
17/09:00pm 15.9 - 11.1 73 2.6 - - - - - - - 0.0
17/08:30pm 16.3 - 11.0 71 2.9 - - - - - - - 0.0
17/08:00pm 16.7 - 11.0 69 3.1 - - - - - - - 0.0
17/07:30pm 17.2 - 11.0 67 3.4 - - - - - - - 0.0
17/07:00pm 18.0 - 10.9 63 3.9 - - - - - - - 0.0
17/06:30pm 19.3 - 10.6 57 4.8 - - - - - - - 0.0
17/06:00pm 20.4 - 10.2 52 5.6 - - - - - - - 0.0
17/05:30pm 20.8 - 10.3 51 5.8 - - - - - - - 0.0
17/05:00pm 21.8 - 10.0 47 6.5 - - - - - - - 0.0
17/04:30pm 22.5 - 10.0 45 6.9 - - - - - - - 0.0
17/04:00pm 22.4 - 10.2 46 6.8 - - - - - - - 0.0
17/03:30pm 22.1 - 9.6 45 6.9 - - - - - - - 0.0
17/03:00pm 22.7 - 9.8 44 7.1 - - - - - - - 0.0
17/02:30pm 23.4 - 9.4 41 7.7 - - - - - - - 0.0
17/02:00pm 23.6 - 7.7 36 8.5 - - - - - - - 0.0
17/01:30pm 22.9 - 7.0 36 8.4 - - - - - - - 0.0
17/01:00pm 22.5 - 8.6 41 7.5 - - - - - - - 0.0
17/12:30pm 21.6 - 8.1 42 7.2 - - - - - - - 0.0
17/12:00pm 21.1 - 7.0 40 7.3 - - - - - - - 0.0
17/11:30am 20.5 - 8.2 45 6.5 - - - - - - - 0.0
17/11:00am 19.8 - 7.9 46 6.2 - - - - - - - 0.0
17/10:30am 18.9 - 8.3 50 5.6 - - - - - - - 0.0
17/10:00am 18.3 - 8.0 51 5.4 - - - - - - - 0.0
17/09:30am 17.1 - 7.5 53 4.9 - - - - - - - 0.0
17/09:00am 16.7 - 7.6 55 4.7 - - - - - - - 0.0
17/08:30am 16.3 - 7.8 57 4.4 - - - - - - - 0.0
17/08:00am 15.3 - 7.6 60 3.9 - - - - - - - 0.0
17/07:30am 14.0 - 7.8 66 3.1 - - - - - - - 0.0
17/07:00am 13.5 - 8.1 70 2.7 - - - - - - - 0.0
17/06:30am 12.0 - 7.7 75 2.1 - - - - - - - 0.0
17/06:00am 10.5 - 7.2 80 1.6 - - - - - - - 0.0
17/05:30am 9.4 - 7.2 86 1.1 - - - - - - - 0.0
17/05:00am 9.0 - 7.1 88 0.9 - - - - - - - 0.0
17/04:30am 9.1 - 7.2 88 0.9 - - - - - - - 0.0
17/04:00am 9.3 - 7.4 88 0.9 - - - - - - - 0.0
17/03:30am 9.6 - 7.5 87 1.0 - - - - - - - 0.0
17/03:00am 9.7 - 7.5 86 1.1 - - - - - - - 0.0
17/02:30am 10.0 - 7.6 85 1.2 - - - - - - - 0.0
17/02:00am 10.5 - 7.7 83 1.4 - - - - - - - 0.0
17/01:30am 11.1 - 8.0 81 1.5 - - - - - - - 0.0
17/01:00am 11.5 - 8.2 80 1.7 - - - - - - - 0.0
17/12:30am 11.9 - 8.4 79 1.8 - - - - - - - 0.0
17/12:00am 12.1 - 8.9 81 1.6 - - - - - - - 0.0
 
Date/Time
WST
Temp
°C
App
Temp
°C
Dew
Point
Rel
Hum
%
Delta-T
°C
Wind Press
QNH
hPa
Press
MSL
hPa
Rain
since 9 am
mm
Dir
 
Spd
km/h
Gust
km/h
Spd
kts
Gust
kts
16/11:30pm 12.3 - 9.0 80 1.7 - - - - - - - 0.0
16/11:00pm 12.5 - 9.0 79 1.8 - - - - - - - 0.0
16/10:30pm 12.6 - 8.9 78 1.9 - - - - - - - 0.0
16/10:00pm 12.8 - 8.9 77 2.0 - - - - - - - 0.0
16/09:30pm 13.1 - 9.0 76 2.1 - - - - - - - 0.0
16/09:00pm 13.4 - 8.9 74 2.3 - - - - - - - 0.0
16/08:30pm 13.8 - 8.4 70 2.8 - - - - - - - 0.0
16/08:00pm 14.3 - 8.7 69 2.9 - - - - - - - 0.0
16/07:30pm 15.0 - 8.3 64 3.4 - - - - - - - 0.0
16/07:00pm 16.1 - 8.1 59 4.1 - - - - - - - 0.0
16/06:30pm 17.5 - 7.5 52 5.1 - - - - - - - 0.0
16/06:00pm 18.7 - 7.8 49 5.7 - - - - - - - 0.0
16/05:30pm 19.4 - 8.1 48 5.9 - - - - - - - 0.0
16/05:00pm 19.6 - 8.0 47 6.1 - - - - - - - 0.0
16/04:30pm 20.8 - 8.1 44 6.7 - - - - - - - 0.0
16/04:00pm 21.4 - 8.3 43 7.0 - - - - - - - 0.0
16/03:30pm 22.0 - 8.2 41 7.4 - - - - - - - 0.0

Other Formats:

Comma delimited format used in spreadsheet applications
http://www.bom.gov.au/fwo/IDW60801/IDW60801.95610.axf

JavaScript Object Notation format (JSON) in row-major order
http://www.bom.gov.au/fwo/IDW60801/IDW60801.95610.json